createdAt,value
2019-03-10T00:00:21.923Z,5.95
2019-03-10T00:02:51.158Z,15.85
2019-03-10T00:05:20.439Z,13.27
2019-03-10T00:07:49.599Z,14.07
2019-03-10T00:10:18.870Z,8.50
2019-03-10T00:12:48.473Z,12.47
2019-03-10T00:15:18.535Z,12.73
2019-03-10T00:17:47.767Z,9.10
2019-03-10T00:20:17.856Z,17.25
2019-03-10T00:22:47.388Z,7.97
2019-03-10T00:25:20.422Z,15.20
2019-03-10T00:27:51.764Z,9.43
2019-03-10T00:30:21.242Z,18.53
2019-03-10T00:32:50.584Z,12.60
2019-03-10T00:35:19.919Z,8.27
2019-03-10T00:37:49.183Z,13.13
2019-03-10T00:41:11.112Z,14.33
2019-03-10T00:44:08.517Z,22.80
2019-03-10T00:47:02.274Z,18.00
2019-03-10T00:50:09.828Z,14.33
2019-03-10T00:52:46.580Z,11.97
2019-03-10T00:55:15.996Z,19.13
2019-03-10T00:57:45.421Z,12.73
2019-03-10T01:00:18.340Z,10.60
2019-03-10T01:02:47.541Z,12.80
2019-03-10T01:05:17.759Z,13.77
2019-03-10T01:07:47.292Z,14.00
2019-03-10T01:10:17.128Z,12.63
2019-03-10T01:12:46.743Z,14.00
2019-03-10T01:15:16.126Z,13.05
2019-03-10T01:17:46.273Z,18.97
2019-03-10T01:20:17.278Z,14.83
2019-03-10T01:22:47.010Z,16.33
2019-03-10T01:25:16.449Z,14.23
2019-03-10T01:27:46.018Z,17.33
2019-03-10T01:30:18.002Z,12.50
2019-03-10T01:33:24.836Z,10.43
2019-03-10T01:35:54.105Z,11.57
2019-03-10T01:38:23.406Z,16.20
2019-03-10T01:40:52.678Z,12.30
2019-03-10T01:43:21.975Z,17.57
2019-03-10T01:45:51.542Z,17.82
2019-03-10T01:48:21.055Z,18.20
2019-03-10T01:50:51.618Z,12.70
2019-03-10T01:53:25.410Z,14.90
2019-03-10T01:55:51.774Z,14.07
2019-03-10T01:58:21.012Z,17.17
2019-03-10T02:00:50.242Z,14.13
2019-03-10T02:03:20.299Z,19.30
2019-03-10T02:05:49.470Z,16.83
2019-03-10T02:08:18.610Z,11.73
2019-03-10T02:10:48.184Z,14.93
2019-03-10T02:13:17.414Z,15.80
2019-03-10T02:15:46.883Z,20.17
2019-03-10T02:18:16.310Z,11.97
2019-03-10T02:20:45.495Z,17.77
2019-03-10T02:23:14.785Z,15.63
2019-03-10T02:25:44.264Z,12.57
2019-03-10T02:28:13.702Z,10.63
2019-03-10T02:30:42.882Z,18.60
2019-03-10T02:33:12.111Z,13.20
2019-03-10T02:35:42.773Z,14.57
2019-03-10T02:38:11.907Z,13.57
2019-03-10T02:40:43.415Z,19.02
2019-03-10T02:43:13.202Z,13.13
2019-03-10T02:45:42.708Z,18.30
2019-03-10T02:48:11.899Z,14.13
2019-03-10T02:50:41.087Z,12.37
2019-03-10T02:53:10.791Z,19.40
2019-03-10T02:55:39.950Z,12.00
2019-03-10T02:58:09.633Z,11.68
2019-03-10T03:00:39.183Z,17.45
2019-03-10T03:03:08.747Z,13.17
2019-03-10T03:05:38.017Z,14.27
2019-03-10T03:08:07.194Z,12.70
2019-03-10T03:10:36.359Z,15.87
2019-03-10T03:13:05.606Z,18.70
2019-03-10T03:15:34.768Z,19.30
2019-03-10T03:18:03.889Z,12.47
2019-03-10T03:20:33.029Z,24.57
2019-03-10T03:23:02.172Z,15.65
2019-03-10T03:25:31.637Z,13.40
2019-03-10T03:28:00.780Z,12.20
2019-03-10T03:30:29.991Z,9.27
2019-03-10T03:32:59.119Z,12.05
2019-03-10T03:35:48.363Z,17.20
2019-03-10T03:38:19.988Z,11.73
2019-03-10T03:40:53.349Z,13.62
2019-03-10T03:43:22.590Z,14.20
2019-03-10T03:45:51.809Z,11.77
2019-03-10T03:48:21.319Z,15.60
2019-03-10T03:50:50.603Z,20.73
2019-03-10T03:53:19.743Z,13.58
2019-03-10T03:55:48.892Z,13.27
2019-03-10T03:58:19.071Z,18.83
2019-03-10T04:00:51.300Z,17.27
2019-03-10T04:03:20.442Z,16.67
2019-03-10T04:05:49.625Z,16.03
2019-03-10T04:08:18.786Z,13.43
2019-03-10T04:10:48.260Z,17.40
2019-03-10T04:13:18.044Z,13.50
2019-03-10T04:15:47.284Z,14.77
2019-03-10T04:18:16.560Z,12.70
2019-03-10T04:20:45.834Z,10.83
2019-03-10T04:23:15.027Z,16.65
2019-03-10T04:25:44.264Z,11.90
2019-03-10T04:28:13.834Z,22.27
2019-03-10T04:30:42.975Z,10.43
2019-03-10T04:33:12.102Z,13.72
2019-03-10T04:35:42.248Z,14.33
2019-03-10T04:38:11.408Z,15.37
2019-03-10T04:40:40.868Z,8.23
2019-03-10T04:43:10.134Z,9.53
2019-03-10T04:45:39.297Z,23.10
2019-03-10T04:48:08.767Z,11.37
2019-03-10T04:50:38.335Z,11.57
2019-03-10T04:53:08.398Z,21.10
2019-03-10T04:55:57.754Z,12.43
2019-03-10T04:58:26.894Z,13.80
2019-03-10T05:00:57.997Z,14.97
2019-03-10T05:03:28.177Z,19.95
2019-03-10T05:05:57.405Z,15.10
2019-03-10T05:08:26.610Z,19.42
2019-03-10T05:10:55.797Z,18.05
2019-03-10T05:13:25.026Z,12.43
2019-03-10T05:15:54.681Z,6.65
2019-03-10T05:18:23.835Z,21.27
2019-03-10T05:20:53.435Z,9.33
2019-03-10T05:23:36.509Z,14.93
2019-03-10T05:26:06.987Z,13.70
2019-03-10T05:28:37.390Z,13.72
2019-03-10T05:31:06.702Z,13.08
2019-03-10T05:33:36.187Z,13.27
2019-03-10T05:36:05.648Z,12.03
2019-03-10T05:38:35.155Z,17.80
2019-03-10T05:41:04.694Z,15.10
2019-03-10T05:43:34.317Z,16.93
2019-03-10T05:46:03.674Z,17.93
2019-03-10T05:48:32.863Z,13.43
2019-03-10T05:51:02.100Z,15.80
2019-03-10T05:53:31.349Z,18.03
2019-03-10T05:56:00.571Z,23.63
2019-03-10T05:58:29.720Z,15.50
2019-03-10T06:00:59.184Z,20.27
2019-03-10T06:03:29.066Z,15.67
2019-03-10T06:05:58.218Z,16.43
2019-03-10T06:08:27.345Z,13.70
2019-03-10T06:10:56.785Z,19.10
2019-03-10T06:13:26.564Z,19.07
2019-03-10T06:15:55.716Z,18.23
2019-03-10T06:18:24.974Z,12.37
2019-03-10T06:20:54.907Z,19.77
2019-03-10T06:23:24.437Z,22.80
2019-03-10T06:25:53.616Z,14.80
2019-03-10T06:28:22.768Z,22.87
2019-03-10T06:30:52.251Z,22.67
2019-03-10T06:33:21.408Z,18.13
2019-03-10T06:35:50.568Z,16.17
2019-03-10T06:38:20.314Z,17.63
2019-03-10T06:40:49.507Z,18.53
2019-03-10T06:43:18.619Z,19.13
2019-03-10T06:45:48.206Z,17.40
2019-03-10T06:48:17.913Z,18.40
2019-03-10T06:50:47.229Z,17.67
2019-03-10T06:53:16.843Z,13.83
2019-03-10T06:55:46.171Z,17.77
2019-03-10T06:58:15.367Z,9.10
2019-03-10T07:00:44.556Z,12.93
2019-03-10T07:03:14.172Z,12.40
2019-03-10T07:05:43.316Z,9.13
2019-03-10T07:08:12.687Z,11.73
2019-03-10T07:10:42.257Z,10.63
2019-03-10T07:13:12.058Z,9.97
2019-03-10T07:15:41.236Z,7.17
2019-03-10T07:18:10.457Z,6.13
2019-03-10T07:20:39.709Z,5.63
2019-03-10T07:23:11.775Z,5.90
2019-03-10T07:25:40.891Z,6.63
2019-03-10T07:28:15.184Z,7.37
2019-03-10T07:30:54.619Z,6.37
2019-03-10T07:33:49.212Z,6.30
2019-03-10T07:36:46.215Z,7.00
2019-03-10T07:39:24.914Z,6.07
2019-03-10T07:42:31.923Z,6.13
2019-03-10T07:45:15.136Z,5.85
2019-03-10T07:48:09.599Z,6.33
2019-03-10T07:50:48.978Z,6.03
2019-03-10T07:53:31.251Z,6.50
2019-03-10T07:56:19.455Z,5.77
2019-03-10T07:59:10.723Z,5.63
2019-03-10T08:01:57.135Z,5.33
2019-03-10T08:04:44.035Z,5.23
2019-03-10T08:07:47.779Z,5.70
2019-03-10T08:10:42.042Z,5.28
2019-03-10T08:13:39.492Z,5.67
2019-03-10T08:16:30.898Z,6.00
2019-03-10T08:19:06.575Z,5.92
2019-03-10T08:21:53.803Z,6.60
2019-03-10T08:24:30.771Z,7.22
2019-03-10T08:27:19.277Z,7.67
2019-03-10T08:30:13.515Z,8.10
2019-03-10T08:32:57.092Z,9.17
2019-03-10T08:35:36.167Z,8.47
2019-03-10T08:38:17.194Z,10.20
2019-03-10T08:41:11.833Z,10.83
2019-03-10T08:44:02.919Z,9.13
2019-03-10T08:46:54.579Z,7.70
2019-03-10T08:49:32.505Z,8.60
2019-03-10T08:52:13.426Z,7.13
2019-03-10T08:54:58.619Z,8.00
2019-03-10T08:57:45.861Z,7.37
2019-03-10T09:00:42.918Z,7.77
2019-03-10T09:03:21.093Z,7.80
2019-03-10T09:06:12.396Z,6.72
2019-03-10T09:09:09.664Z,5.97
2019-03-10T09:11:56.870Z,5.87
2019-03-10T09:14:54.973Z,5.80
2019-03-10T09:17:42.662Z,5.77
2019-03-10T09:20:32.012Z,13.00
2019-03-10T09:23:26.265Z,4.30
2019-03-10T09:26:07.988Z,3.77
2019-03-10T09:28:56.192Z,5.43
2019-03-10T09:31:53.631Z,4.90
2019-03-10T09:34:40.397Z,4.60
2019-03-10T09:37:14.794Z,4.80
2019-03-10T09:40:02.027Z,5.00
2019-03-10T09:42:40.386Z,4.72
2019-03-10T09:45:31.382Z,4.73
2019-03-10T09:48:18.185Z,5.60
2019-03-10T09:51:13.400Z,5.63
2019-03-10T09:54:10.648Z,4.80
2019-03-10T09:56:59.576Z,4.42
2019-03-10T09:59:47.812Z,4.30
2019-03-10T10:02:36.356Z,5.10
2019-03-10T10:05:40.767Z,5.67
2019-03-10T10:08:29.024Z,6.17
2019-03-10T10:11:22.232Z,6.17
2019-03-10T10:14:10.464Z,8.63
2019-03-10T10:16:55.058Z,8.60
2019-03-10T10:19:46.280Z,15.18
2019-03-10T10:22:36.770Z,11.03
2019-03-10T10:25:25.354Z,5.53
2019-03-10T10:28:00.879Z,5.17
2019-03-10T10:30:47.684Z,3.12
2019-03-10T10:33:40.050Z,2.53
2019-03-10T10:36:19.997Z,3.77
2019-03-10T10:39:23.217Z,3.03
2019-03-10T10:42:14.339Z,3.27
2019-03-10T10:44:49.540Z,2.47
2019-03-10T10:47:37.699Z,2.60
2019-03-10T10:50:24.681Z,1.80
2019-03-10T10:53:21.556Z,1.30
2019-03-10T10:56:12.134Z,2.13
2019-03-10T10:58:51.897Z,1.37
2019-03-10T11:01:38.856Z,1.10
2019-03-10T11:04:16.710Z,1.52
2019-03-10T11:07:03.535Z,0.90
2019-03-10T11:10:03.920Z,2.50
2019-03-10T11:13:10.475Z,2.65
2019-03-10T11:15:53.653Z,0.90
2019-03-10T11:18:33.964Z,1.80
2019-03-10T11:21:21.683Z,2.23
2019-03-10T11:23:56.926Z,1.30
2019-03-10T11:26:41.784Z,1.00
2019-03-10T11:29:29.953Z,1.00
2019-03-10T11:32:36.477Z,0.90
2019-03-10T11:35:25.465Z,1.87
2019-03-10T11:38:22.540Z,2.40
2019-03-10T11:40:59.101Z,3.10
2019-03-10T11:43:38.786Z,1.22
2019-03-10T11:46:35.122Z,1.90
2019-03-10T11:49:14.566Z,1.30
2019-03-10T11:51:54.786Z,2.67
2019-03-10T11:54:37.503Z,5.05
2019-03-10T11:57:16.327Z,1.37
2019-03-10T12:00:14.440Z,2.43
2019-03-10T12:03:02.641Z,3.43
2019-03-10T12:05:41.835Z,1.07
2019-03-10T12:08:22.551Z,1.10
2019-03-10T12:10:52.056Z,2.47
2019-03-10T12:13:21.354Z,1.10
2019-03-10T12:15:51.594Z,1.83
2019-03-10T12:18:23.328Z,1.30
2019-03-10T12:20:53.421Z,1.30
2019-03-10T12:23:59.475Z,2.30
2019-03-10T12:26:29.444Z,1.20
2019-03-10T12:28:58.695Z,2.60
2019-03-10T12:31:28.309Z,1.47
2019-03-10T12:33:57.981Z,3.03
2019-03-10T12:36:27.586Z,1.20
2019-03-10T12:38:56.814Z,5.30
2019-03-10T12:41:26.294Z,1.30
2019-03-10T12:43:55.505Z,3.90
2019-03-10T12:46:25.496Z,1.60
2019-03-10T12:48:54.975Z,2.93
2019-03-10T12:51:24.794Z,1.33
2019-03-10T12:53:56.184Z,1.73
2019-03-10T12:56:25.670Z,1.83
2019-03-10T12:58:54.940Z,2.85
2019-03-10T13:01:24.364Z,3.10
2019-03-10T13:03:58.900Z,1.30
2019-03-10T13:06:24.827Z,2.00
2019-03-10T13:08:54.138Z,8.10
2019-03-10T13:11:25.460Z,2.47
2019-03-10T13:13:55.142Z,3.17
2019-03-10T13:16:24.427Z,1.73
2019-03-10T13:18:53.976Z,1.83
2019-03-10T13:21:26.004Z,2.07
2019-03-10T13:23:54.922Z,2.07
2019-03-10T13:26:25.248Z,4.77
2019-03-10T13:28:54.640Z,3.63
2019-03-10T13:31:23.888Z,5.17
2019-03-10T13:33:53.230Z,1.27
2019-03-10T13:36:22.508Z,3.63
2019-03-10T13:38:52.388Z,5.47
2019-03-10T13:41:23.267Z,3.12
2019-03-10T13:43:52.440Z,4.13
2019-03-10T13:46:21.727Z,3.45
2019-03-10T13:48:51.193Z,4.90
2019-03-10T13:51:20.393Z,2.30
2019-03-10T13:53:49.663Z,8.17
2019-03-10T13:56:18.858Z,3.53
2019-03-10T13:58:48.090Z,4.10
2019-03-10T14:01:19.907Z,3.27
2019-03-10T14:03:49.067Z,4.93
2019-03-10T14:06:18.688Z,7.85
2019-03-10T14:08:47.977Z,2.80
2019-03-10T14:11:19.356Z,2.80
2019-03-10T14:13:48.642Z,2.93
2019-03-10T14:16:17.980Z,7.30
2019-03-10T14:18:47.216Z,3.77
2019-03-10T14:21:17.502Z,4.70
2019-03-10T14:23:48.819Z,4.93
2019-03-10T14:26:18.131Z,3.07
2019-03-10T14:28:47.346Z,8.40
2019-03-10T14:31:16.887Z,4.20
2019-03-10T14:33:46.104Z,5.27
2019-03-10T14:36:15.406Z,6.90
2019-03-10T14:38:44.793Z,6.05
2019-03-10T14:41:15.382Z,9.70
2019-03-10T14:43:44.558Z,4.13
2019-03-10T14:46:25.125Z,5.67
2019-03-10T14:48:44.744Z,6.80
2019-03-10T14:51:16.635Z,6.80
2019-03-10T14:53:45.853Z,4.50
2019-03-10T14:56:15.204Z,8.80
2019-03-10T14:58:45.017Z,4.80
2019-03-10T15:01:14.282Z,3.07
2019-03-10T15:03:43.775Z,4.97
2019-03-10T15:06:13.253Z,3.73
2019-03-10T15:08:43.431Z,7.77
2019-03-10T15:11:12.732Z,2.50
2019-03-10T15:13:42.077Z,1.70
2019-03-10T15:16:11.310Z,3.63
2019-03-10T15:18:42.324Z,5.72
2019-03-10T15:21:11.745Z,2.47
2019-03-10T15:23:41.135Z,4.60
2019-03-10T15:26:22.218Z,5.27
2019-03-10T15:28:52.634Z,5.00
2019-03-10T15:31:28.791Z,2.73
2019-03-10T15:34:04.669Z,1.63
2019-03-10T15:36:36.061Z,4.10
2019-03-10T15:39:13.261Z,2.93
2019-03-10T15:41:50.629Z,3.37
2019-03-10T15:44:21.641Z,4.63
2019-03-10T15:46:55.359Z,2.93
2019-03-10T15:49:36.762Z,3.30
2019-03-10T15:52:09.032Z,2.17
2019-03-10T15:54:39.826Z,2.60
2019-03-10T15:57:09.028Z,3.83
2019-03-10T15:59:39.502Z,9.87
2019-03-10T16:02:10.437Z,3.00
2019-03-10T16:04:40.247Z,2.40
2019-03-10T16:07:09.609Z,2.80
2019-03-10T16:09:38.809Z,3.03
2019-03-10T16:12:08.099Z,2.90
2019-03-10T16:14:37.433Z,6.33
2019-03-10T16:17:07.763Z,5.73
2019-03-10T16:19:38.356Z,4.40
2019-03-10T16:22:07.607Z,53.10
2019-03-10T16:24:37.410Z,3.23
2019-03-10T16:27:06.735Z,17.43
2019-03-10T16:29:36.243Z,9.77
2019-03-10T16:32:05.592Z,10.73
2019-03-10T16:34:35.594Z,2.53
2019-03-10T16:37:04.870Z,2.30
2019-03-10T16:39:34.083Z,8.60
2019-03-10T16:42:03.663Z,2.87
2019-03-10T16:44:33.449Z,3.77
2019-03-10T16:47:03.010Z,22.37
2019-03-10T16:49:32.758Z,6.78
2019-03-10T16:52:02.782Z,5.53
2019-03-10T16:54:32.367Z,4.25
2019-03-10T16:57:01.696Z,2.53
2019-03-10T16:59:31.204Z,1.45
2019-03-10T17:02:00.514Z,3.50
2019-03-10T17:04:29.810Z,2.37
2019-03-10T17:06:59.343Z,1.47
2019-03-10T17:09:28.713Z,4.45
2019-03-10T17:11:58.294Z,7.37
2019-03-10T17:14:27.995Z,1.20
2019-03-10T17:16:57.254Z,3.60
2019-03-10T17:19:26.710Z,3.10
2019-03-10T17:21:56.248Z,2.00
2019-03-10T17:24:25.513Z,1.73
2019-03-10T17:26:54.770Z,2.07
2019-03-10T17:29:23.930Z,1.20
2019-03-10T17:31:53.133Z,4.95
2019-03-10T17:34:22.382Z,2.90
2019-03-10T17:36:51.624Z,1.70
2019-03-10T17:39:21.985Z,3.80
2019-03-10T17:41:52.660Z,1.00
2019-03-10T17:44:21.960Z,2.80
2019-03-10T17:46:51.387Z,5.47
2019-03-10T17:49:20.909Z,1.53
2019-03-10T17:51:50.267Z,2.72
2019-03-10T17:54:19.462Z,1.57
2019-03-10T17:56:48.748Z,2.73
2019-03-10T17:59:20.040Z,0.80
2019-03-10T18:01:49.290Z,1.00
2019-03-10T18:04:23.386Z,1.67
2019-03-10T18:06:53.430Z,1.63
2019-03-10T18:09:23.570Z,0.80
2019-03-10T18:11:52.732Z,1.10
2019-03-10T18:14:22.880Z,2.08
2019-03-10T18:16:52.835Z,0.95
2019-03-10T18:19:22.223Z,1.80
2019-03-10T18:21:51.490Z,1.20
2019-03-10T18:24:20.888Z,1.00
2019-03-10T18:26:50.278Z,1.40
2019-03-10T18:29:20.148Z,0.80
2019-03-10T18:31:49.492Z,0.90
2019-03-10T18:34:19.389Z,1.92
2019-03-10T18:36:48.681Z,1.23
2019-03-10T18:39:20.182Z,1.10
2019-03-10T18:41:49.534Z,2.10
2019-03-10T18:44:18.690Z,1.33
2019-03-10T18:46:47.898Z,1.77
2019-03-10T18:49:17.140Z,1.10
2019-03-10T18:51:46.391Z,0.80
2019-03-10T18:54:16.167Z,1.00
2019-03-10T18:56:45.403Z,3.53
2019-03-10T18:59:14.651Z,0.98
2019-03-10T19:01:43.968Z,1.13
2019-03-10T19:04:13.199Z,2.65
2019-03-10T19:06:42.486Z,1.10
2019-03-10T19:09:11.750Z,1.10
2019-03-10T19:11:41.372Z,1.27
2019-03-10T19:14:10.699Z,3.10
2019-03-10T19:16:40.346Z,1.10
2019-03-10T19:19:09.523Z,2.80
2019-03-10T19:21:38.847Z,1.30
2019-03-10T19:24:08.293Z,1.55
2019-03-10T19:26:37.552Z,3.47
2019-03-10T19:29:06.927Z,1.63
2019-03-10T19:31:36.512Z,2.60
2019-03-10T19:34:06.262Z,1.73
2019-03-10T19:36:35.907Z,1.30
2019-03-10T19:39:07.054Z,1.60
2019-03-10T19:41:36.627Z,1.70
2019-03-10T19:44:06.778Z,1.57
2019-03-10T19:46:36.097Z,1.90
2019-03-10T19:49:05.247Z,3.23
2019-03-10T19:51:34.869Z,4.03
2019-03-10T19:54:04.628Z,1.90
2019-03-10T19:56:33.790Z,1.50
2019-03-10T19:59:05.434Z,1.70
2019-03-10T20:01:34.667Z,1.50
2019-03-10T20:04:09.039Z,4.10
2019-03-10T20:06:38.373Z,3.30
2019-03-10T20:09:08.150Z,2.37
2019-03-10T20:11:37.472Z,2.73
2019-03-10T20:14:06.714Z,5.53
2019-03-10T20:16:38.751Z,5.73
2019-03-10T20:19:07.993Z,2.30
2019-03-10T20:21:39.947Z,1.77
2019-03-10T20:24:13.315Z,2.43
2019-03-10T20:26:42.948Z,1.83
2019-03-10T20:29:12.302Z,4.03
2019-03-10T20:31:41.643Z,1.80
2019-03-10T20:34:11.541Z,2.03
2019-03-10T20:36:41.007Z,1.67
2019-03-10T20:39:11.454Z,2.70
2019-03-10T20:41:40.618Z,5.40
2019-03-10T20:44:09.929Z,2.47
2019-03-10T20:46:39.072Z,2.63
2019-03-10T20:49:08.624Z,1.73
2019-03-10T20:51:38.067Z,5.63
2019-03-10T20:54:07.679Z,1.30
2019-03-10T20:56:37.107Z,2.97
2019-03-10T20:59:06.260Z,1.52
2019-03-10T21:01:35.732Z,1.70
2019-03-10T21:04:04.928Z,1.80
2019-03-10T21:06:34.811Z,1.60
2019-03-10T21:09:04.995Z,1.50
2019-03-10T21:11:34.188Z,5.67
2019-03-10T21:14:04.183Z,1.60
2019-03-10T21:16:33.423Z,3.97
2019-03-10T21:19:04.193Z,1.50
2019-03-10T21:21:33.473Z,2.70
2019-03-10T21:24:02.700Z,1.93
2019-03-10T21:26:32.017Z,4.22
2019-03-10T21:29:03.537Z,2.60
2019-03-10T21:31:32.434Z,6.77
2019-03-10T21:34:01.596Z,1.57
2019-03-10T21:36:30.879Z,2.70
2019-03-10T21:39:03.122Z,5.90
2019-03-10T21:41:32.636Z,1.50
2019-03-10T21:44:01.916Z,1.27
2019-03-10T21:46:31.194Z,2.90
2019-03-10T21:49:00.700Z,3.80
2019-03-10T21:51:29.852Z,1.53
2019-03-10T21:53:59.221Z,2.10
2019-03-10T21:56:28.514Z,1.50
2019-03-10T21:58:58.449Z,2.53
2019-03-10T22:01:28.019Z,2.03
2019-03-10T22:03:57.632Z,1.00
2019-03-10T22:06:28.432Z,2.37
2019-03-10T22:08:58.006Z,4.77
2019-03-10T22:11:27.221Z,2.47
2019-03-10T22:13:56.795Z,1.80
2019-03-10T22:16:26.226Z,1.37
2019-03-10T22:18:57.717Z,1.17
2019-03-10T22:21:27.073Z,3.13
2019-03-10T22:23:59.582Z,2.70
2019-03-10T22:26:31.787Z,2.00
2019-03-10T22:29:00.987Z,1.40
2019-03-10T22:31:30.873Z,2.27
2019-03-10T22:34:00.048Z,2.80
2019-03-10T22:36:29.669Z,2.13
2019-03-10T22:38:58.947Z,5.00
2019-03-10T22:41:28.262Z,3.10
2019-03-10T22:43:57.647Z,1.43
2019-03-10T22:46:27.657Z,1.33
2019-03-10T22:49:05.400Z,4.27
2019-03-10T22:51:37.808Z,1.47
2019-03-10T22:54:07.021Z,3.33
2019-03-10T22:56:36.448Z,3.10
2019-03-10T22:59:05.679Z,2.17
2019-03-10T23:01:34.927Z,2.47
2019-03-10T23:04:04.670Z,2.50
2019-03-10T23:06:33.794Z,1.90
2019-03-10T23:09:03.256Z,2.37
2019-03-10T23:11:32.595Z,5.03
2019-03-10T23:14:02.047Z,1.70
2019-03-10T23:16:31.422Z,1.85
2019-03-10T23:19:01.207Z,1.30
2019-03-10T23:21:30.757Z,1.10
2019-03-10T23:26:36.103Z,1.37
2019-03-10T23:29:08.738Z,1.80
2019-03-10T23:31:37.866Z,1.10
2019-03-10T23:34:07.330Z,3.07
2019-03-10T23:36:36.544Z,1.30
2019-03-10T23:39:06.963Z,2.40
2019-03-10T23:41:38.417Z,2.25
2019-03-10T23:44:07.898Z,3.30
2019-03-10T23:46:37.044Z,7.58
2019-03-10T23:49:08.237Z,2.03
2019-03-10T23:51:39.103Z,3.80
2019-03-10T23:54:08.260Z,6.13
2019-03-10T23:56:37.604Z,6.17
2019-03-10T23:59:07.123Z,2.10
